createdAt,value
2023-02-22T00:02:11.188Z,97680.50
2023-02-22T00:04:42.189Z,97681.84
2023-02-22T00:07:08.853Z,97681.94
2023-02-22T00:09:35.943Z,97687.22
2023-02-22T00:12:02.863Z,97683.38
2023-02-22T00:14:29.505Z,97683.66
2023-02-22T00:16:59.402Z,97680.44
2023-02-22T00:19:28.039Z,97672.94
2023-02-22T00:21:54.865Z,97677.19
2023-02-22T00:24:24.367Z,97680.53
2023-02-22T00:26:57.979Z,97676.38
2023-02-22T00:29:25.412Z,97673.38
2023-02-22T00:31:52.454Z,97678.16
2023-02-22T00:34:19.385Z,97678.88
2023-02-22T00:36:48.255Z,97683.06
2023-02-22T00:39:15.772Z,97676.16
2023-02-22T00:41:42.977Z,97675.44
2023-02-22T00:44:09.773Z,97668.34
2023-02-22T00:46:36.702Z,97681.66
2023-02-22T00:49:03.686Z,97680.84
2023-02-22T00:51:30.252Z,97673.69
2023-02-22T00:53:57.280Z,97684.91
2023-02-22T00:56:24.186Z,97673.38
2023-02-22T00:58:50.826Z,97677.84
2023-02-22T01:01:17.934Z,97675.19
2023-02-22T01:03:45.397Z,97680.31
2023-02-22T01:06:12.811Z,97683.59
2023-02-22T01:08:44.650Z,97683.06
2023-02-22T01:11:11.861Z,97684.31
2023-02-22T01:13:38.622Z,97682.63
2023-02-22T01:16:08.399Z,97684.94
2023-02-22T01:18:38.089Z,97678.47
2023-02-22T01:21:05.017Z,97687.00
2023-02-22T01:23:31.808Z,97684.91
2023-02-22T01:25:58.904Z,97682.63
2023-02-22T01:28:25.630Z,97683.88
2023-02-22T01:30:52.693Z,97677.84
2023-02-22T01:33:19.418Z,97688.72
2023-02-22T01:35:47.014Z,97683.34
2023-02-22T01:38:14.470Z,97684.34
2023-02-22T01:40:43.737Z,97684.09
2023-02-22T01:43:29.810Z,97687.56
2023-02-22T01:46:18.992Z,97680.63
2023-02-22T01:48:54.575Z,97686.88
2023-02-22T01:51:29.472Z,97681.66
2023-02-22T01:54:08.404Z,97678.03
2023-02-22T01:56:38.871Z,97683.13
2023-02-22T01:59:09.440Z,97685.38
2023-02-22T02:01:39.451Z,97680.47
2023-02-22T02:04:12.229Z,97678.91
2023-02-22T02:06:39.860Z,97672.41
2023-02-22T02:09:10.902Z,97671.19
2023-02-22T02:11:40.442Z,97673.88
2023-02-22T02:14:09.849Z,97672.22
2023-02-22T02:16:43.471Z,97670.34
2023-02-22T02:19:22.379Z,97670.16
2023-02-22T02:22:17.951Z,97677.03
2023-02-22T02:24:56.122Z,97677.13
2023-02-22T02:27:38.321Z,97673.69
2023-02-22T02:30:31.430Z,97676.66
2023-02-22T02:33:07.307Z,97678.59
2023-02-22T02:36:22.799Z,97669.06
2023-02-22T02:39:16.313Z,97672.59
2023-02-22T02:41:49.276Z,97674.56
2023-02-22T02:44:20.260Z,97667.38
2023-02-22T02:47:09.160Z,97667.94
2023-02-22T02:49:38.781Z,97673.16
2023-02-22T02:52:06.681Z,97665.56
2023-02-22T02:54:36.880Z,97665.38
2023-02-22T02:57:04.428Z,97664.53
2023-02-22T02:59:34.341Z,97665.19
2023-02-22T03:02:04.027Z,97665.47
2023-02-22T03:04:59.993Z,97666.88
2023-02-22T03:07:53.991Z,97661.66
2023-02-22T03:10:26.629Z,97665.09
2023-02-22T03:13:16.265Z,97658.31
2023-02-22T03:15:58.149Z,97663.53
2023-02-22T03:18:38.349Z,97669.66
2023-02-22T03:21:31.620Z,97668.25
2023-02-22T03:24:12.083Z,97669.28
2023-02-22T03:26:45.268Z,97666.69
2023-02-22T03:29:17.688Z,97665.94
2023-02-22T03:31:53.522Z,97662.22
2023-02-22T03:34:28.563Z,97664.09
2023-02-22T03:37:26.881Z,97667.44
2023-02-22T03:39:55.349Z,97672.44
2023-02-22T03:42:26.660Z,97666.06
2023-02-22T03:44:58.005Z,97665.31
2023-02-22T03:47:40.000Z,97676.72
2023-02-22T03:50:12.727Z,97678.09
2023-02-22T03:52:39.388Z,97674.75
2023-02-22T03:55:13.018Z,97669.56
2023-02-22T03:57:44.814Z,97680.78
2023-02-22T04:00:14.825Z,97679.13
2023-02-22T04:02:43.739Z,97682.00
2023-02-22T04:05:17.145Z,97678.84
2023-02-22T04:07:44.262Z,97688.38
2023-02-22T04:10:13.925Z,97687.47
2023-02-22T04:12:40.929Z,97682.88
2023-02-22T04:15:09.764Z,97677.63
2023-02-22T04:17:36.781Z,97679.28
2023-02-22T04:20:06.197Z,97676.88
2023-02-22T04:22:43.971Z,97678.63
2023-02-22T04:25:11.166Z,97670.25
2023-02-22T04:27:38.210Z,97671.75
2023-02-22T04:30:05.926Z,97678.72
2023-02-22T04:32:34.297Z,97679.47
2023-02-22T04:35:00.966Z,97673.44
2023-02-22T04:37:29.385Z,97672.22
2023-02-22T04:39:56.290Z,97658.97
2023-02-22T04:42:23.126Z,97669.28
2023-02-22T04:44:49.802Z,97669.44
2023-02-22T04:47:16.434Z,97668.34
2023-02-22T04:49:43.640Z,97665.28
2023-02-22T04:52:10.232Z,97665.28
2023-02-22T04:54:39.013Z,97659.25
2023-02-22T04:57:06.243Z,97660.00
2023-02-22T04:59:34.064Z,97664.44
2023-02-22T05:02:01.776Z,97662.66
2023-02-22T05:04:28.598Z,97662.03
2023-02-22T05:06:55.327Z,97663.88
2023-02-22T05:09:22.342Z,97661.38
2023-02-22T05:11:49.443Z,97662.78
2023-02-22T05:14:16.395Z,97658.84
2023-02-22T05:16:43.091Z,97659.03
2023-02-22T05:19:09.719Z,97660.41
2023-02-22T05:21:36.611Z,97667.91
2023-02-22T05:24:03.268Z,97661.41
2023-02-22T05:26:30.011Z,97666.03
2023-02-22T05:28:56.751Z,97655.81
2023-02-22T05:31:23.500Z,97661.00
2023-02-22T05:33:50.237Z,97664.00
2023-02-22T05:36:17.108Z,97652.09
2023-02-22T05:38:44.908Z,97655.63
2023-02-22T05:41:12.931Z,97662.34
2023-02-22T05:43:40.399Z,97664.81
2023-02-22T05:46:07.770Z,97657.91
2023-02-22T05:48:34.417Z,97667.88
2023-02-22T05:51:01.083Z,97666.03
2023-02-22T05:53:27.828Z,97666.03
2023-02-22T05:55:54.579Z,97674.56
2023-02-22T05:58:22.454Z,97673.63
2023-02-22T06:00:49.133Z,97673.81
2023-02-22T06:03:15.880Z,97672.72
2023-02-22T06:05:42.660Z,97675.88
2023-02-22T06:08:09.735Z,97674.19
2023-02-22T06:10:37.161Z,97677.19
2023-02-22T06:13:05.895Z,97677.66
2023-02-22T06:15:32.640Z,97681.72
2023-02-22T06:17:59.332Z,97678.56
2023-02-22T06:20:28.713Z,97683.69
2023-02-22T06:22:57.726Z,97675.09
2023-02-22T06:25:27.547Z,97685.78
2023-02-22T06:27:54.598Z,97696.59
2023-02-22T06:30:29.720Z,97692.47
2023-02-22T06:32:56.791Z,97695.81
2023-02-22T06:35:23.812Z,97703.69
2023-02-22T06:37:50.710Z,97706.28
2023-02-22T06:40:17.554Z,97706.75
2023-02-22T06:42:44.204Z,97714.16
2023-02-22T06:45:11.094Z,97713.59
2023-02-22T06:47:40.375Z,97717.88
2023-02-22T06:50:17.416Z,97726.69
2023-02-22T06:52:44.169Z,97723.34
2023-02-22T06:55:10.837Z,97718.69
2023-02-22T06:57:37.451Z,97723.69
2023-02-22T07:00:04.849Z,97724.19
2023-02-22T07:02:31.505Z,97733.16
2023-02-22T07:04:58.198Z,97729.84
2023-02-22T07:07:25.363Z,97732.78
2023-02-22T07:09:51.975Z,97726.22
2023-02-22T07:12:21.284Z,97734.16
2023-02-22T07:14:47.860Z,97718.66
2023-02-22T07:17:14.957Z,97726.56
2023-02-22T07:19:41.536Z,97728.63
2023-02-22T07:22:08.182Z,97728.09
2023-02-22T07:24:35.136Z,97732.44
2023-02-22T07:27:02.617Z,97725.84
2023-02-22T07:29:29.420Z,97724.03
2023-02-22T07:31:57.750Z,97724.28
2023-02-22T07:34:24.504Z,97724.56
2023-02-22T07:36:51.132Z,97716.91
2023-02-22T07:39:17.764Z,97718.47
2023-02-22T07:41:44.354Z,97717.06
2023-02-22T07:44:23.753Z,97723.91
2023-02-22T07:46:50.421Z,97714.03
2023-02-22T07:49:17.975Z,97715.34
2023-02-22T07:51:44.596Z,97714.47
2023-02-22T07:54:11.177Z,97715.69
2023-02-22T07:56:37.808Z,97707.81
2023-02-22T07:59:04.512Z,97700.31
2023-02-22T08:01:31.951Z,97708.88
2023-02-22T08:03:58.606Z,97709.44
2023-02-22T08:06:25.983Z,97710.41
2023-02-22T08:08:52.601Z,97702.13
2023-02-22T08:11:19.504Z,97710.28
2023-02-22T08:13:46.252Z,97711.00
2023-02-22T08:16:12.998Z,97708.22
2023-02-22T08:18:41.072Z,97706.72
2023-02-22T08:21:07.758Z,97704.66
2023-02-22T08:23:34.440Z,97704.81
2023-02-22T08:26:09.689Z,97699.13
2023-02-22T08:28:36.424Z,97696.63
2023-02-22T08:31:07.753Z,97690.63
2023-02-22T08:33:35.520Z,97683.44
2023-02-22T08:36:02.200Z,97684.56
2023-02-22T08:38:31.069Z,97686.56
2023-02-22T08:40:58.144Z,97687.69
2023-02-22T08:43:24.898Z,97689.34
2023-02-22T08:45:52.463Z,97683.78
2023-02-22T08:48:20.099Z,97686.91
2023-02-22T08:50:46.838Z,97690.81
2023-02-22T08:53:16.293Z,97689.47
2023-02-22T08:55:43.315Z,97687.63
2023-02-22T08:58:10.257Z,97684.00
2023-02-22T09:00:39.155Z,97680.66
2023-02-22T09:03:08.876Z,97675.66
2023-02-22T09:05:35.837Z,97673.78
2023-02-22T09:08:02.874Z,97676.38
2023-02-22T09:10:31.987Z,97673.38
2023-02-22T09:13:00.854Z,97679.66
2023-02-22T09:15:28.571Z,97680.66
2023-02-22T09:17:56.091Z,97677.09
2023-02-22T09:20:24.730Z,97675.16
2023-02-22T09:22:52.986Z,97670.19
2023-02-22T09:25:23.093Z,97665.00
2023-02-22T09:27:51.896Z,97666.56
2023-02-22T09:30:26.962Z,97667.00
2023-02-22T09:32:55.793Z,97660.78
2023-02-22T09:35:27.246Z,97660.00
2023-02-22T09:37:59.246Z,97653.38
2023-02-22T09:40:30.185Z,97653.75
2023-02-22T09:43:16.926Z,97655.25
2023-02-22T09:45:49.466Z,97653.66
2023-02-22T09:50:53.788Z,97657.84
2023-02-22T09:53:49.812Z,97656.59
2023-02-22T09:56:20.828Z,97648.06
2023-02-22T09:58:52.319Z,97644.75
2023-02-22T10:01:33.191Z,97653.25
2023-02-22T10:04:24.731Z,97641.69
2023-02-22T10:07:13.348Z,97635.97
2023-02-22T10:09:43.491Z,97632.00
2023-02-22T10:12:30.093Z,97630.13
2023-02-22T10:15:02.684Z,97633.09
2023-02-22T10:17:43.688Z,97626.66
2023-02-22T10:20:37.182Z,97625.03
2023-02-22T10:23:28.874Z,97623.97
2023-02-22T10:26:22.468Z,97614.91
2023-02-22T10:29:18.944Z,97621.13
2023-02-22T10:31:49.054Z,97618.41
2023-02-22T10:34:22.068Z,97615.22
2023-02-22T10:36:53.938Z,97613.97
2023-02-22T10:39:35.143Z,97606.88
2023-02-22T10:42:08.313Z,97597.09
2023-02-22T10:44:38.960Z,97602.88
2023-02-22T10:47:08.297Z,97589.47
2023-02-22T10:49:39.166Z,97598.56
2023-02-22T10:52:17.288Z,97584.84
2023-02-22T10:54:48.348Z,97585.31
2023-02-22T10:57:21.107Z,97585.31
2023-02-22T10:59:47.837Z,97584.72
2023-02-22T11:02:33.887Z,97575.94
2023-02-22T11:05:04.155Z,97579.22
2023-02-22T11:07:36.339Z,97574.66
2023-02-22T11:10:09.487Z,97567.63
2023-02-22T11:12:48.509Z,97557.06
2023-02-22T11:15:22.312Z,97551.84
2023-02-22T11:17:51.689Z,97546.03
2023-02-22T11:20:25.327Z,97544.03
2023-02-22T11:22:58.470Z,97542.41
2023-02-22T11:25:52.793Z,97547.28
2023-02-22T11:28:32.943Z,97531.69
2023-02-22T11:31:13.175Z,97531.56
2023-02-22T11:33:40.115Z,97520.88
2023-02-22T11:36:09.350Z,97515.19
2023-02-22T11:38:38.880Z,97508.88
2023-02-22T11:41:34.986Z,97511.84
2023-02-22T11:44:21.155Z,97502.50
2023-02-22T11:46:48.240Z,97500.22
2023-02-22T11:49:20.147Z,97496.59
2023-02-22T11:52:00.208Z,97483.31
2023-02-22T11:54:53.289Z,97490.28
2023-02-22T11:57:46.757Z,97485.06
2023-02-22T12:00:33.472Z,97476.63
2023-02-22T12:03:52.615Z,97470.28
2023-02-22T12:06:32.435Z,97465.38
2023-02-22T12:09:08.249Z,97467.31
2023-02-22T12:12:12.108Z,97463.84
2023-02-22T12:14:47.583Z,97470.13
2023-02-22T12:17:29.356Z,97468.31
2023-02-22T12:20:21.590Z,97455.78
2023-02-22T12:23:19.612Z,97452.91
2023-02-22T12:26:10.771Z,97455.31
2023-02-22T12:28:43.833Z,97437.91
2023-02-22T12:31:23.581Z,97439.97
2023-02-22T12:34:04.843Z,97444.72
2023-02-22T12:36:40.206Z,97426.66
2023-02-22T12:39:36.095Z,97440.16
2023-02-22T12:42:19.012Z,97430.41
2023-02-22T12:44:54.588Z,97429.84
2023-02-22T12:47:29.119Z,97427.78
2023-02-22T12:50:03.305Z,97415.44
2023-02-22T12:52:44.707Z,97412.59
2023-02-22T12:55:16.124Z,97409.69
2023-02-22T12:58:18.391Z,97411.59
2023-02-22T13:00:50.987Z,97398.91
2023-02-22T13:03:32.827Z,97393.91
2023-02-22T13:06:21.440Z,97396.97
2023-02-22T13:08:56.978Z,97397.34
2023-02-22T13:11:40.512Z,97394.28
2023-02-22T13:14:30.152Z,97389.97
2023-02-22T13:17:24.137Z,97386.56
2023-02-22T13:20:14.925Z,97386.91
2023-02-22T13:22:50.348Z,97384.16
2023-02-22T13:25:22.938Z,97379.03
2023-02-22T13:28:07.489Z,97384.06
2023-02-22T13:30:41.947Z,97383.41
2023-02-22T13:33:08.556Z,97370.50
2023-02-22T13:35:37.727Z,97380.38
2023-02-22T13:38:41.731Z,97374.84
2023-02-22T13:41:43.394Z,97375.38
2023-02-22T13:44:33.801Z,97373.31
2023-02-22T13:47:03.376Z,97379.34
2023-02-22T13:49:48.248Z,97370.19
2023-02-22T13:52:20.159Z,97371.38
2023-02-22T13:54:54.454Z,97367.00
2023-02-22T13:57:25.243Z,97360.16
2023-02-22T14:00:18.295Z,97364.03
2023-02-22T14:03:26.339Z,97359.72
2023-02-22T14:06:00.883Z,97356.41
2023-02-22T14:08:31.360Z,97347.75
2023-02-22T14:11:14.166Z,97353.63
2023-02-22T14:13:58.028Z,97352.13
2023-02-22T14:16:33.896Z,97348.22
2023-02-22T14:19:23.422Z,97344.34
2023-02-22T14:22:13.006Z,97347.03
2023-02-22T14:24:47.552Z,97345.19
2023-02-22T14:27:17.545Z,97350.41
2023-02-22T14:30:00.367Z,97349.47
2023-02-22T14:32:35.467Z,97344.25
2023-02-22T14:35:26.559Z,97347.28
2023-02-22T14:37:58.573Z,97350.72
2023-02-22T14:40:27.776Z,97345.28
2023-02-22T14:43:13.382Z,97331.84
2023-02-22T14:45:48.565Z,97338.72
2023-02-22T14:48:39.536Z,97341.69
2023-02-22T14:51:25.818Z,97336.19
2023-02-22T14:54:00.269Z,97348.88
2023-02-22T14:56:36.328Z,97348.31
2023-02-22T14:59:15.349Z,97344.84
2023-02-22T15:01:53.152Z,97343.16
2023-02-22T15:04:25.724Z,97342.69
2023-02-22T15:06:54.399Z,97337.03
2023-02-22T15:09:28.772Z,97340.72
2023-02-22T15:12:05.292Z,97336.22
2023-02-22T15:14:37.998Z,97343.72
2023-02-22T15:17:13.880Z,97340.50
2023-02-22T15:19:42.238Z,97342.50
2023-02-22T15:22:26.590Z,97345.69
2023-02-22T15:25:02.849Z,97341.44
2023-02-22T15:27:30.083Z,97342.34
2023-02-22T15:30:04.770Z,97336.97
2023-02-22T15:32:49.957Z,97339.97
2023-02-22T15:35:21.249Z,97344.34
2023-02-22T15:37:48.116Z,97336.31
2023-02-22T15:40:20.901Z,97338.78
2023-02-22T15:42:58.394Z,97334.47
2023-02-22T15:45:26.251Z,97332.91
2023-02-22T15:47:58.737Z,97329.16
2023-02-22T15:50:33.353Z,97332.50
2023-02-22T15:53:06.745Z,97333.19
2023-02-22T15:55:47.202Z,97331.44
2023-02-22T15:58:16.990Z,97325.19
2023-02-22T16:00:46.954Z,97331.97
2023-02-22T16:03:20.383Z,97335.78
2023-02-22T16:05:51.226Z,97330.06
2023-02-22T16:08:23.216Z,97336.28
2023-02-22T16:10:53.389Z,97334.19
2023-02-22T16:13:31.622Z,97337.69
2023-02-22T16:16:02.472Z,97335.06
2023-02-22T16:18:32.220Z,97334.06
2023-02-22T16:21:12.988Z,97338.63
2023-02-22T16:23:59.115Z,97336.59
2023-02-22T16:26:37.239Z,97342.81
2023-02-22T16:29:08.704Z,97348.00
2023-02-22T16:31:39.100Z,97344.63
2023-02-22T16:34:08.275Z,97350.50
2023-02-22T16:36:46.884Z,97346.97
2023-02-22T16:39:24.928Z,97345.00
2023-02-22T16:45:58.693Z,97353.00
2023-02-22T16:48:38.384Z,97349.94
2023-02-22T16:51:21.909Z,97353.09
2023-02-22T16:53:49.988Z,97357.28
2023-02-22T16:56:20.999Z,97357.88
2023-02-22T16:58:52.028Z,97369.44
2023-02-22T17:01:23.706Z,97360.63
2023-02-22T17:03:54.484Z,97360.53
2023-02-22T17:06:23.652Z,97365.91
2023-02-22T17:08:55.762Z,97366.66
2023-02-22T17:11:25.413Z,97363.59
2023-02-22T17:13:52.531Z,97374.84
2023-02-22T17:16:20.299Z,97374.16
2023-02-22T17:18:49.979Z,97373.09
2023-02-22T17:21:17.256Z,97379.50
2023-02-22T17:23:46.218Z,97370.28
2023-02-22T17:26:15.775Z,97375.81
2023-02-22T17:28:44.222Z,97369.63
2023-02-22T17:31:24.144Z,97371.28
2023-02-22T17:33:51.730Z,97372.13
2023-02-22T17:36:19.132Z,97373.09
2023-02-22T17:38:46.611Z,97370.78
2023-02-22T17:41:13.733Z,97376.31
2023-02-22T17:43:40.944Z,97364.72
2023-02-22T17:46:09.054Z,97364.72
2023-02-22T17:48:36.545Z,97362.78
2023-02-22T17:51:09.101Z,97374.66
2023-02-22T17:53:36.857Z,97370.78
2023-02-22T17:56:08.777Z,97369.94
2023-02-22T17:58:36.495Z,97365.25
2023-02-22T18:01:04.795Z,97361.66
2023-02-22T18:03:32.714Z,97369.09
2023-02-22T18:06:01.573Z,97367.72
2023-02-22T18:08:31.500Z,97363.00
2023-02-22T18:10:59.088Z,97365.38
2023-02-22T18:13:27.842Z,97357.75
2023-02-22T18:16:00.358Z,97355.91
2023-02-22T18:18:28.209Z,97362.84
2023-02-22T18:20:59.997Z,97358.53
2023-02-22T18:23:30.115Z,97358.81
2023-02-22T18:26:10.083Z,97367.47
2023-02-22T18:28:38.308Z,97360.81
2023-02-22T18:31:15.209Z,97368.34
2023-02-22T18:33:43.830Z,97360.28
2023-02-22T18:36:11.896Z,97356.84
2023-02-22T18:38:43.541Z,97361.91
2023-02-22T18:41:13.338Z,97363.91
2023-02-22T18:43:41.047Z,97359.56
2023-02-22T18:46:20.201Z,97361.88
2023-02-22T18:48:48.930Z,97356.34
2023-02-22T18:51:17.649Z,97359.50
2023-02-22T18:53:47.680Z,97364.03
2023-02-22T18:56:22.628Z,97356.06
2023-02-22T18:59:00.450Z,97360.28
2023-02-22T19:01:28.290Z,97362.47
2023-02-22T19:03:55.904Z,97355.81
2023-02-22T19:06:23.657Z,97357.22
2023-02-22T19:08:51.431Z,97355.81
2023-02-22T19:11:22.096Z,97360.97
2023-02-22T19:13:51.820Z,97358.84
2023-02-22T19:16:22.127Z,97357.59
2023-02-22T19:18:52.669Z,97354.97
2023-02-22T19:21:21.293Z,97356.88
2023-02-22T19:23:48.918Z,97357.16
2023-02-22T19:26:24.634Z,97353.34
2023-02-22T19:28:56.527Z,97363.91
2023-02-22T19:31:29.905Z,97364.41
2023-02-22T19:34:15.746Z,97363.84
2023-02-22T19:36:48.211Z,97361.44
2023-02-22T19:39:20.878Z,97367.91
2023-02-22T19:41:48.216Z,97360.06
2023-02-22T19:44:15.180Z,97365.41
2023-02-22T19:46:42.451Z,97364.81
2023-02-22T19:49:09.900Z,97373.28
2023-02-22T19:51:37.808Z,97381.03
2023-02-22T19:54:07.414Z,97377.97
2023-02-22T19:56:35.756Z,97380.09
2023-02-22T19:59:09.695Z,97376.50
2023-02-22T20:01:37.261Z,97386.50
2023-02-22T20:04:07.404Z,97379.84
2023-02-22T20:06:40.616Z,97384.16
2023-02-22T20:09:23.885Z,97385.09
2023-02-22T20:11:52.461Z,97383.19
2023-02-22T20:14:25.715Z,97398.41
2023-02-22T20:16:54.457Z,97387.25
2023-02-22T20:19:24.855Z,97382.97
2023-02-22T20:21:56.055Z,97390.91
2023-02-22T20:24:24.928Z,97390.34
2023-02-22T20:26:56.015Z,97393.88
2023-02-22T20:29:29.843Z,97389.03
2023-02-22T20:31:58.903Z,97387.47
2023-02-22T20:34:33.738Z,97387.34
2023-02-22T20:37:01.590Z,97386.03
2023-02-22T20:39:29.501Z,97379.16
2023-02-22T20:41:57.222Z,97384.16
2023-02-22T20:44:27.417Z,97384.50
2023-02-22T20:46:54.625Z,97388.41
2023-02-22T20:49:21.824Z,97392.19
2023-02-22T20:51:49.576Z,97389.38
2023-02-22T20:54:17.899Z,97386.50
2023-02-22T20:56:47.179Z,97388.88
2023-02-22T20:59:16.877Z,97395.00
2023-02-22T21:01:44.295Z,97389.69
2023-02-22T21:04:13.712Z,97386.25
2023-02-22T21:06:45.772Z,97391.69
2023-02-22T21:09:18.484Z,97398.59
2023-02-22T21:11:47.101Z,97394.44
2023-02-22T21:14:18.979Z,97394.88
2023-02-22T21:16:49.218Z,97394.41
2023-02-22T21:19:28.469Z,97390.84
2023-02-22T21:21:58.710Z,97389.28
2023-02-22T21:24:28.146Z,97381.69
2023-02-22T21:26:58.978Z,97387.59
2023-02-22T21:29:28.949Z,97382.38
2023-02-22T21:31:56.890Z,97386.97
2023-02-22T21:34:26.665Z,97384.50
2023-02-22T21:36:54.194Z,97386.50
2023-02-22T21:39:24.546Z,97378.53
2023-02-22T21:41:54.059Z,97372.34
2023-02-22T21:44:23.584Z,97385.41
2023-02-22T21:46:51.012Z,97380.31
2023-02-22T21:49:23.590Z,97378.47
2023-02-22T21:51:51.980Z,97376.09
2023-02-22T21:54:19.134Z,97370.66
2023-02-22T21:56:46.622Z,97369.84
2023-02-22T21:59:22.778Z,97372.88
2023-02-22T22:01:56.136Z,97375.63
2023-02-22T22:04:28.237Z,97366.13
2023-02-22T22:06:57.615Z,97368.00
2023-02-22T22:09:29.179Z,97368.72
2023-02-22T22:11:59.597Z,97362.44
2023-02-22T22:14:27.974Z,97366.34
2023-02-22T22:16:58.788Z,97364.47
2023-02-22T22:19:28.377Z,97359.47
2023-02-22T22:21:56.432Z,97359.09
2023-02-22T22:24:24.061Z,97357.75
2023-02-22T22:26:54.955Z,97364.97
2023-02-22T22:29:24.615Z,97355.97
2023-02-22T22:31:52.317Z,97355.97
2023-02-22T22:34:19.649Z,97355.50
2023-02-22T22:36:47.657Z,97362.97
2023-02-22T22:39:14.804Z,97358.00
2023-02-22T22:41:45.810Z,97355.38
2023-02-22T22:44:15.586Z,97354.66
2023-02-22T22:46:44.063Z,97363.88
2023-02-22T22:49:13.758Z,97365.63
2023-02-22T22:51:42.928Z,97362.41
2023-02-22T22:54:10.935Z,97363.13
2023-02-22T22:56:38.938Z,97354.81
2023-02-22T22:59:08.451Z,97360.47
2023-02-22T23:01:44.742Z,97360.28
2023-02-22T23:04:16.653Z,97364.53
2023-02-22T23:06:48.286Z,97371.59
2023-02-22T23:09:18.982Z,97362.06
2023-02-22T23:11:53.509Z,97361.13
2023-02-22T23:14:31.973Z,97359.25
2023-02-22T23:17:03.774Z,97358.34
2023-02-22T23:19:36.471Z,97352.63
2023-02-22T23:22:05.667Z,97357.84
2023-02-22T23:24:37.815Z,97355.25
2023-02-22T23:27:11.088Z,97358.50
2023-02-22T23:29:41.342Z,97362.69
2023-02-22T23:32:09.556Z,97363.09
2023-02-22T23:34:41.286Z,97352.59
2023-02-22T23:37:10.958Z,97359.16
2023-02-22T23:39:38.673Z,97355.41
2023-02-22T23:42:08.922Z,97352.28
2023-02-22T23:44:36.137Z,97352.28
2023-02-22T23:47:04.053Z,97354.59
2023-02-22T23:49:38.583Z,97347.94
2023-02-22T23:52:08.214Z,97347.94
2023-02-22T23:54:40.558Z,97344.81
2023-02-22T23:57:09.060Z,97339.94
2023-02-22T23:59:40.593Z,97342.94
